createdAt,value
2023-01-21T00:00:48.670Z,-1.7
2023-01-21T00:01:49.834Z,-1.7
2023-01-21T00:02:51.228Z,-1.7
2023-01-21T00:03:52.724Z,-1.7
2023-01-21T00:04:53.958Z,-1.7
2023-01-21T00:05:55.110Z,-1.7
2023-01-21T00:06:56.536Z,-1.7
2023-01-21T00:07:57.949Z,-1.7
2023-01-21T00:09:00.567Z,-1.7
2023-01-21T00:10:01.744Z,-1.7
2023-01-21T00:11:02.768Z,-1.7
2023-01-21T00:12:04.249Z,-1.7
2023-01-21T00:13:05.111Z,-1.8
2023-01-21T00:14:06.548Z,-1.8
2023-01-21T00:15:07.453Z,-1.8
2023-01-21T00:16:08.702Z,-1.8
2023-01-21T00:17:10.383Z,-1.8
2023-01-21T00:18:11.494Z,-1.8
2023-01-21T00:19:12.917Z,-1.8
2023-01-21T00:20:14.135Z,-1.8
2023-01-21T00:21:16.024Z,-1.8
2023-01-21T00:22:17.472Z,-1.8
2023-01-21T00:23:18.329Z,-1.8
2023-01-21T00:24:19.715Z,-1.8
2023-01-21T00:25:20.888Z,-1.8
2023-01-21T00:26:22.315Z,-1.8
2023-01-21T00:27:23.461Z,-1.8
2023-01-21T00:28:24.586Z,-1.8
2023-01-21T00:29:25.723Z,-1.8
2023-01-21T00:30:26.867Z,-1.8
2023-01-21T00:31:27.940Z,-1.8
2023-01-21T00:32:29.288Z,-1.8
2023-01-21T00:33:30.179Z,-1.8
2023-01-21T00:34:31.589Z,-1.8
2023-01-21T00:35:32.207Z,-1.8
2023-01-21T00:36:33.096Z,-1.8
2023-01-21T00:37:34.018Z,-1.7
2023-01-21T00:38:35.453Z,-1.7
2023-01-21T00:39:36.498Z,-1.7
2023-01-21T00:40:37.666Z,-1.7
2023-01-21T00:41:38.847Z,-1.7
2023-01-21T00:42:39.999Z,-1.7
2023-01-21T00:43:40.859Z,-1.7
2023-01-21T00:44:41.719Z,-1.6
2023-01-21T00:45:42.616Z,-1.6
2023-01-21T00:46:44.032Z,-1.6
2023-01-21T00:47:45.194Z,-1.6
2023-01-21T00:48:46.607Z,-1.6
2023-01-21T00:49:48.003Z,-1.6
2023-01-21T00:50:49.437Z,-1.6
2023-01-21T00:51:50.666Z,-1.6
2023-01-21T00:52:51.864Z,-1.6
2023-01-21T00:53:52.758Z,-1.6
2023-01-21T00:54:53.958Z,-1.6
2023-01-21T00:55:55.388Z,-1.6
2023-01-21T00:56:56.738Z,-1.5
2023-01-21T00:57:58.474Z,-1.5
2023-01-21T00:59:00.003Z,-1.5
2023-01-21T01:00:01.311Z,-1.5
2023-01-21T01:01:02.715Z,-1.5
2023-01-21T01:02:03.855Z,-1.5
2023-01-21T01:03:05.006Z,-1.5
2023-01-21T01:04:06.129Z,-1.5
2023-01-21T01:05:07.546Z,-1.5
2023-01-21T01:06:08.963Z,-1.5
2023-01-21T01:07:10.379Z,-1.5
2023-01-21T01:08:11.815Z,-1.5
2023-01-21T01:09:13.243Z,-1.5
2023-01-21T01:10:14.682Z,-1.5
2023-01-21T01:11:16.072Z,-1.4
2023-01-21T01:12:17.211Z,-1.5
2023-01-21T01:13:18.711Z,-1.4
2023-01-21T01:14:19.578Z,-1.4
2023-01-21T01:15:20.435Z,-1.4
2023-01-21T01:16:21.294Z,-1.4
2023-01-21T01:17:22.710Z,-1.4
2023-01-21T01:18:23.865Z,-1.4
2023-01-21T01:19:24.741Z,-1.4
2023-01-21T01:20:25.878Z,-1.4
2023-01-21T01:21:27.061Z,-1.4
2023-01-21T01:22:28.210Z,-1.4
2023-01-21T01:23:29.144Z,-1.4
2023-01-21T01:24:30.811Z,-1.4
2023-01-21T01:25:31.707Z,-1.4
2023-01-21T01:26:33.123Z,-1.3
2023-01-21T01:27:34.265Z,-1.3
2023-01-21T01:28:35.141Z,-1.3
2023-01-21T01:29:36.471Z,-1.3
2023-01-21T01:30:37.925Z,-1.3
2023-01-21T01:31:39.188Z,-1.3
2023-01-21T01:32:40.891Z,-1.3
2023-01-21T01:33:42.322Z,-1.3
2023-01-21T01:34:43.445Z,-1.3
2023-01-21T01:35:44.581Z,-1.3
2023-01-21T01:36:45.998Z,-1.3
2023-01-21T01:37:47.140Z,-1.3
2023-01-21T01:38:48.316Z,-1.2
2023-01-21T01:39:49.231Z,-1.2
2023-01-21T01:40:50.349Z,-1.2
2023-01-21T01:41:51.247Z,-1.2
2023-01-21T01:42:52.419Z,-1.2
2023-01-21T01:43:53.866Z,-1.2
2023-01-21T01:44:54.986Z,-1.2
2023-01-21T01:45:56.113Z,-1.2
2023-01-21T01:46:57.537Z,-1.2
2023-01-21T01:47:58.664Z,-1.2
2023-01-21T01:49:00.117Z,-1.1
2023-01-21T01:50:01.679Z,-1.1
2023-01-21T01:51:03.139Z,-1.1
2023-01-21T01:52:04.595Z,-1.1
2023-01-21T01:53:05.758Z,-1.1
2023-01-21T01:54:07.192Z,-1.1
2023-01-21T01:55:08.390Z,-1.1
2023-01-21T01:56:09.500Z,-1.1
2023-01-21T01:57:10.393Z,-1.1
2023-01-21T01:58:11.811Z,-1.1
2023-01-21T01:59:12.972Z,-1
2023-01-21T02:00:13.893Z,-1
2023-01-21T02:01:16.211Z,-1
2023-01-21T02:02:17.683Z,-1
2023-01-21T02:03:18.829Z,-1
2023-01-21T02:04:20.257Z,-1
2023-01-21T02:05:21.667Z,-1
2023-01-21T02:06:23.071Z,-1
2023-01-21T02:07:23.937Z,-1
2023-01-21T02:08:25.348Z,-1
2023-01-21T02:09:26.535Z,-1
2023-01-21T02:10:27.689Z,-0.9
2023-01-21T02:11:28.885Z,-0.9
2023-01-21T02:12:29.504Z,-0.9
2023-01-21T02:13:30.915Z,-0.9
2023-01-21T02:14:32.253Z,-0.9
2023-01-21T02:15:33.348Z,-0.9
2023-01-21T02:16:34.207Z,-0.9
2023-01-21T02:17:35.347Z,-0.9
2023-01-21T02:18:36.762Z,-0.9
2023-01-21T02:19:38.183Z,-0.9
2023-01-21T02:20:39.591Z,-0.9
2023-01-21T02:21:41.010Z,-0.9
2023-01-21T02:22:42.438Z,-0.9
2023-01-21T02:23:43.846Z,-0.8
2023-01-21T02:24:45.282Z,-0.8
2023-01-21T02:25:46.709Z,-0.8
2023-01-21T02:26:47.606Z,-0.8
2023-01-21T02:27:49.022Z,-0.8
2023-01-21T02:28:50.160Z,-0.8
2023-01-21T02:29:50.813Z,-0.8
2023-01-21T02:30:52.298Z,-0.8
2023-01-21T02:31:53.636Z,-0.8
2023-01-21T02:32:55.342Z,-0.8
2023-01-21T02:33:56.759Z,-0.7
2023-01-21T02:34:57.911Z,-0.7
2023-01-21T02:35:59.315Z,-0.7
2023-01-21T02:37:00.220Z,-0.7
2023-01-21T02:38:00.838Z,-0.7
2023-01-21T02:39:01.972Z,-0.7
2023-01-21T02:40:02.852Z,-0.7
2023-01-21T02:41:04.272Z,-0.7
2023-01-21T02:42:05.662Z,-0.6
2023-01-21T02:43:07.083Z,-0.6
2023-01-21T02:44:08.498Z,-0.6
2023-01-21T02:45:09.654Z,-0.6
2023-01-21T02:46:10.812Z,-0.6
2023-01-21T02:47:12.334Z,-0.6
2023-01-21T02:48:13.755Z,-0.6
2023-01-21T02:49:14.931Z,-0.6
2023-01-21T02:50:16.345Z,-0.6
2023-01-21T02:51:18.636Z,-0.6
2023-01-21T02:52:19.763Z,-0.6
2023-01-21T02:53:20.665Z,-0.5
2023-01-21T02:54:21.523Z,-0.5
2023-01-21T02:55:22.954Z,-0.5
2023-01-21T02:56:23.851Z,-0.5
2023-01-21T02:57:25.222Z,-0.5
2023-01-21T02:58:26.430Z,-0.5
2023-01-21T02:59:27.553Z,-0.5
2023-01-21T03:00:28.475Z,-0.5
2023-01-21T03:01:29.634Z,-0.5
2023-01-21T03:02:30.819Z,-0.5
2023-01-21T03:03:31.966Z,-0.5
2023-01-21T03:04:33.182Z,-0.5
2023-01-21T03:05:34.607Z,-0.5
2023-01-21T03:06:35.747Z,-0.5
2023-01-21T03:07:36.880Z,-0.5
2023-01-21T03:08:38.058Z,-0.5
2023-01-21T03:09:39.473Z,-0.5
2023-01-21T03:10:40.910Z,-0.5
2023-01-21T03:11:42.059Z,-0.5
2023-01-21T03:12:42.955Z,-0.5
2023-01-21T03:13:43.854Z,-0.5
2023-01-21T03:14:44.755Z,-0.5
2023-01-21T03:15:46.210Z,-0.5
2023-01-21T03:16:47.039Z,-0.5
2023-01-21T03:17:48.456Z,-0.5
2023-01-21T03:18:49.593Z,-0.5
2023-01-21T03:19:50.777Z,-0.5
2023-01-21T03:20:51.927Z,-0.5
2023-01-21T03:21:52.776Z,-0.4
2023-01-21T03:22:53.908Z,-0.4
2023-01-21T03:23:55.094Z,-0.4
2023-01-21T03:24:56.503Z,-0.4
2023-01-21T03:25:57.669Z,-0.4
2023-01-21T03:26:58.811Z,-0.4
2023-01-21T03:27:59.799Z,-0.4
2023-01-21T03:29:00.735Z,-0.4
2023-01-21T03:30:01.673Z,-0.4
2023-01-21T03:31:02.887Z,-0.4
2023-01-21T03:32:03.612Z,-0.4
2023-01-21T03:33:04.751Z,-0.3
2023-01-21T03:34:05.945Z,-0.3
2023-01-21T03:35:06.871Z,-0.3
2023-01-21T03:36:07.789Z,-0.3
2023-01-21T03:37:08.902Z,-0.3
2023-01-21T03:38:09.802Z,-0.3
2023-01-21T03:39:10.984Z,-0.3
2023-01-21T03:40:12.404Z,-0.3
2023-01-21T03:41:13.833Z,-0.3
2023-01-21T03:42:14.985Z,-0.2
2023-01-21T03:43:16.101Z,-0.2
2023-01-21T03:44:17.242Z,-0.2
2023-01-21T03:45:18.660Z,-0.2
2023-01-21T03:46:19.808Z,-0.3
2023-01-21T03:47:20.928Z,-0.3
2023-01-21T03:48:21.824Z,-0.3
2023-01-21T03:49:23.132Z,-0.3
2023-01-21T03:50:24.284Z,-0.3
2023-01-21T03:51:25.470Z,-0.3
2023-01-21T03:52:26.604Z,-0.3
2023-01-21T03:53:28.005Z,-0.3
2023-01-21T03:54:29.425Z,-0.3
2023-01-21T03:55:30.837Z,-0.3
2023-01-21T03:56:32.285Z,-0.3
2023-01-21T03:57:33.418Z,-0.2
2023-01-21T03:58:34.313Z,-0.2
2023-01-21T03:59:35.472Z,-0.2
2023-01-21T04:00:36.941Z,-0.2
2023-01-21T04:01:37.875Z,-0.2
2023-01-21T04:02:38.488Z,-0.2
2023-01-21T04:03:39.408Z,-0.2
2023-01-21T04:04:40.274Z,-0.2
2023-01-21T04:05:41.443Z,-0.2
2023-01-21T04:06:42.355Z,-0.2
2023-01-21T04:07:42.979Z,-0.2
2023-01-21T04:08:44.394Z,-0.2
2023-01-21T04:09:45.252Z,-0.2
2023-01-21T04:10:46.118Z,-0.2
2023-01-21T04:11:47.004Z,-0.2
2023-01-21T04:12:47.622Z,-0.2
2023-01-21T04:13:48.733Z,-0.2
2023-01-21T04:14:49.649Z,-0.2
2023-01-21T04:15:50.797Z,-0.2
2023-01-21T04:16:51.683Z,-0.2
2023-01-21T04:17:53.087Z,-0.2
2023-01-21T04:18:54.250Z,-0.2
2023-01-21T04:19:55.151Z,-0.2
2023-01-21T04:20:56.011Z,-0.2
2023-01-21T04:21:57.557Z,-0.2
2023-01-21T04:22:58.700Z,-0.2
2023-01-21T04:23:59.835Z,-0.2
2023-01-21T04:25:00.979Z,-0.2
2023-01-21T04:26:02.414Z,-0.2
2023-01-21T04:27:03.048Z,-0.2
2023-01-21T04:28:04.275Z,-0.2
2023-01-21T04:29:04.896Z,-0.2
2023-01-21T04:30:06.082Z,-0.2
2023-01-21T04:31:07.331Z,-0.2
2023-01-21T04:32:08.602Z,-0.2
2023-01-21T04:33:09.997Z,-0.2
2023-01-21T04:34:11.137Z,-0.2
2023-01-21T04:35:11.990Z,-0.2
2023-01-21T04:36:13.133Z,-0.2
2023-01-21T04:37:13.780Z,-0.2
2023-01-21T04:38:15.184Z,-0.2
2023-01-21T04:39:16.110Z,-0.2
2023-01-21T04:40:17.171Z,-0.2
2023-01-21T04:41:19.289Z,-0.2
2023-01-21T04:42:20.455Z,-0.2
2023-01-21T04:43:21.649Z,-0.2
2023-01-21T04:44:22.339Z,-0.2
2023-01-21T04:45:23.553Z,-0.2
2023-01-21T04:46:24.692Z,-0.2
2023-01-21T04:47:25.898Z,-0.2
2023-01-21T04:48:26.732Z,-0.2
2023-01-21T04:49:28.150Z,-0.2
2023-01-21T04:50:29.044Z,-0.3
2023-01-21T04:52:46.339Z,-0.2
2023-01-21T04:53:47.517Z,-0.2
2023-01-21T04:54:48.413Z,-0.2
2023-01-21T04:55:49.265Z,-0.2
2023-01-21T04:56:50.462Z,-0.3
2023-01-21T04:57:51.067Z,-0.3
2023-01-21T04:58:52.230Z,-0.3
2023-01-21T04:59:53.151Z,-0.2
2023-01-21T05:00:54.591Z,-0.3
2023-01-21T05:01:55.501Z,-0.2
2023-01-21T05:02:56.826Z,-0.3
2023-01-21T05:03:57.735Z,-0.3
2023-01-21T05:04:58.869Z,-0.3
2023-01-21T05:06:00.073Z,-0.3
2023-01-21T05:07:00.688Z,-0.3
2023-01-21T05:08:02.104Z,-0.3
2023-01-21T05:09:03.008Z,-0.3
2023-01-21T05:10:03.665Z,-0.3
2023-01-21T05:11:04.838Z,-0.3
2023-01-21T05:12:05.991Z,-0.3
2023-01-21T05:13:06.875Z,-0.3
2023-01-21T05:14:07.854Z,-0.3
2023-01-21T05:15:08.960Z,-0.3
2023-01-21T05:16:10.415Z,-0.3
2023-01-21T05:17:11.260Z,-0.3
2023-01-21T05:18:12.387Z,-0.3
2023-01-21T05:19:13.619Z,-0.3
2023-01-21T05:20:15.132Z,-0.3
2023-01-21T05:21:17.131Z,-0.3
2023-01-21T05:22:18.312Z,-0.3
2023-01-21T05:23:18.955Z,-0.3
2023-01-21T05:24:19.830Z,-0.3
2023-01-21T05:25:20.472Z,-0.3
2023-01-21T05:26:21.107Z,-0.3
2023-01-21T05:27:22.534Z,-0.3
2023-01-21T05:28:23.731Z,-0.3
2023-01-21T05:29:24.613Z,-0.3
2023-01-21T05:30:25.525Z,-0.3
2023-01-21T05:31:26.241Z,-0.3
2023-01-21T05:32:27.461Z,-0.3
2023-01-21T05:33:28.569Z,-0.4
2023-01-21T05:34:29.715Z,-0.4
2023-01-21T05:35:30.889Z,-0.4
2023-01-21T05:36:32.329Z,-0.4
2023-01-21T05:37:33.746Z,-0.4
2023-01-21T05:38:34.911Z,-0.4
2023-01-21T05:39:35.813Z,-0.4
2023-01-21T05:40:36.717Z,-0.4
2023-01-21T05:41:37.579Z,-0.4
2023-01-21T05:42:38.214Z,-0.4
2023-01-21T05:43:39.336Z,-0.4
2023-01-21T05:44:40.514Z,-0.4
2023-01-21T05:45:41.893Z,-0.4
2023-01-21T05:46:43.077Z,-0.4
2023-01-21T05:47:44.221Z,-0.4
2023-01-21T05:48:44.805Z,-0.4
2023-01-21T05:49:45.716Z,-0.4
2023-01-21T05:50:47.264Z,-0.4
2023-01-21T05:51:48.615Z,-0.4
2023-01-21T05:52:49.721Z,-0.4
2023-01-21T05:53:50.858Z,-0.4
2023-01-21T05:55:01.167Z,-0.4
2023-01-21T05:56:03.820Z,-0.4
2023-01-21T05:57:04.721Z,-0.4
2023-01-21T05:58:05.623Z,-0.4
2023-01-21T05:59:06.764Z,-0.4
2023-01-21T06:00:07.929Z,-0.4
2023-01-21T06:01:08.760Z,-0.4
2023-01-21T06:02:09.502Z,-0.5
2023-01-21T06:03:10.882Z,-0.4
2023-01-21T06:04:12.056Z,-0.4
2023-01-21T06:05:12.685Z,-0.5
2023-01-21T06:06:13.807Z,-0.4
2023-01-21T06:07:14.969Z,-0.5
2023-01-21T06:08:16.095Z,-0.5
2023-01-21T06:09:16.998Z,-0.5
2023-01-21T06:10:18.120Z,-0.5
2023-01-21T06:11:19.936Z,-0.5
2023-01-21T06:12:21.131Z,-0.5
2023-01-21T06:13:25.552Z,-0.5
2023-01-21T06:14:26.704Z,-0.5
2023-01-21T06:15:27.468Z,-0.6
2023-01-21T06:16:28.498Z,-0.6
2023-01-21T06:17:29.923Z,-0.6
2023-01-21T06:18:30.537Z,-0.6
2023-01-21T06:19:31.466Z,-0.6
2023-01-21T06:20:32.338Z,-0.6
2023-01-21T06:21:33.200Z,-0.6
2023-01-21T06:22:34.624Z,-0.6
2023-01-21T06:23:35.745Z,-0.6
2023-01-21T06:24:36.942Z,-0.6
2023-01-21T06:25:38.091Z,-0.6
2023-01-21T06:26:39.012Z,-0.6
2023-01-21T06:27:40.426Z,-0.6
2023-01-21T06:28:41.330Z,-0.6
2023-01-21T06:29:42.752Z,-0.6
2023-01-21T06:30:43.677Z,-0.7
2023-01-21T06:31:45.286Z,-0.7
2023-01-21T06:32:46.824Z,-0.7
2023-01-21T06:33:47.672Z,-0.7
2023-01-21T06:34:49.089Z,-0.7
2023-01-21T06:35:50.516Z,-0.8
2023-01-21T06:36:51.418Z,-0.8
2023-01-21T06:37:52.326Z,-0.8
2023-01-21T06:38:52.946Z,-0.8
2023-01-21T06:39:53.799Z,-0.8
2023-01-21T06:40:54.663Z,-0.9
2023-01-21T06:41:55.795Z,-0.9
2023-01-21T06:42:57.234Z,-0.9
2023-01-21T06:43:58.367Z,-0.9
2023-01-21T06:44:59.487Z,-0.9
2023-01-21T06:46:00.459Z,-0.9
2023-01-21T06:47:02.100Z,-0.9
2023-01-21T06:48:03.819Z,-0.9
2023-01-21T06:49:04.982Z,-0.9
2023-01-21T06:50:06.121Z,-0.9
2023-01-21T06:51:06.785Z,-0.9
2023-01-21T06:52:07.844Z,-0.9
2023-01-21T06:53:08.882Z,-0.9
2023-01-21T06:54:09.764Z,-0.9
2023-01-21T06:55:10.944Z,-0.9
2023-01-21T06:56:11.825Z,-1
2023-01-21T06:57:12.729Z,-0.9
2023-01-21T06:58:14.130Z,-0.9
2023-01-21T06:59:14.989Z,-1
2023-01-21T07:00:16.239Z,-0.9
2023-01-21T07:01:18.430Z,-0.9
2023-01-21T07:02:19.694Z,-0.9
2023-01-21T07:03:20.590Z,-0.9
2023-01-21T07:04:21.729Z,-0.9
2023-01-21T07:05:22.366Z,-0.9
2023-01-21T07:06:23.494Z,-0.9
2023-01-21T07:07:24.646Z,-0.8
2023-01-21T07:08:25.536Z,-0.8
2023-01-21T07:09:26.154Z,-0.8
2023-01-21T07:10:27.012Z,-0.8
2023-01-21T07:11:28.440Z,-0.8
2023-01-21T07:12:29.871Z,-0.8
2023-01-21T07:13:30.983Z,-0.8
2023-01-21T07:14:32.401Z,-0.8
2023-01-21T07:15:33.295Z,-0.7
2023-01-21T07:16:34.265Z,-0.7
2023-01-21T07:17:34.888Z,-0.7
2023-01-21T07:18:36.294Z,-0.7
2023-01-21T07:19:36.967Z,-0.7
2023-01-21T07:20:39.872Z,-0.7
2023-01-21T07:21:41.697Z,-0.7
2023-01-21T07:22:43.124Z,-0.6
2023-01-21T07:23:44.531Z,-0.7
2023-01-21T07:24:45.139Z,-0.6
2023-01-21T07:25:46.279Z,-0.6
2023-01-21T07:26:47.419Z,-0.6
2023-01-21T07:27:48.876Z,-0.6
2023-01-21T07:28:49.754Z,-0.6
2023-01-21T07:29:50.892Z,-0.6
2023-01-21T07:30:52.339Z,-0.6
2023-01-21T07:31:53.431Z,-0.6
2023-01-21T07:32:55.245Z,-0.6
2023-01-21T07:33:56.151Z,-0.6
2023-01-21T07:34:57.058Z,-0.6
2023-01-21T07:35:57.713Z,-0.6
2023-01-21T07:36:58.853Z,-0.6
2023-01-21T07:37:59.723Z,-0.6
2023-01-21T07:39:00.606Z,-0.6
2023-01-21T07:40:01.500Z,-0.6
2023-01-21T07:41:02.685Z,-0.6
2023-01-21T07:42:04.077Z,-0.6
2023-01-21T07:43:04.916Z,-0.6
2023-01-21T07:44:05.820Z,-0.5
2023-01-21T07:45:06.959Z,-0.6
2023-01-21T07:46:08.130Z,-0.5
2023-01-21T07:47:09.509Z,-0.6
2023-01-21T07:48:10.388Z,-0.5
2023-01-21T07:49:11.295Z,-0.5
2023-01-21T07:50:12.190Z,-0.5
2023-01-21T07:51:13.369Z,-0.5
2023-01-21T07:52:14.149Z,-0.5
2023-01-21T07:53:15.250Z,-0.5
2023-01-21T07:54:16.434Z,-0.5
2023-01-21T07:55:17.831Z,-0.5
2023-01-21T07:56:20.069Z,-0.5
2023-01-21T07:57:21.504Z,-0.5
2023-01-21T07:58:22.680Z,-0.4
2023-01-21T07:59:23.563Z,-0.4
2023-01-21T08:00:24.470Z,-0.4
2023-01-21T08:01:25.605Z,-0.4
2023-01-21T08:02:27.348Z,-0.4
2023-01-21T08:03:29.349Z,-0.4
2023-01-21T08:04:29.975Z,-0.4
2023-01-21T08:05:31.393Z,-0.4
2023-01-21T08:06:32.528Z,-0.4
2023-01-21T08:07:33.691Z,-0.4
2023-01-21T08:08:34.812Z,-0.3
2023-01-21T08:09:35.444Z,-0.3
2023-01-21T08:10:36.580Z,-0.3
2023-01-21T08:11:37.713Z,-0.3
2023-01-21T08:12:38.375Z,-0.3
2023-01-21T08:13:38.971Z,-0.3
2023-01-21T08:14:39.921Z,-0.3
2023-01-21T08:15:40.793Z,-0.3
2023-01-21T08:16:41.929Z,-0.3
2023-01-21T08:17:42.610Z,-0.3
2023-01-21T08:18:43.515Z,-0.3
2023-01-21T08:19:44.407Z,-0.2
2023-01-21T08:20:45.269Z,-0.2
2023-01-21T08:21:46.684Z,-0.2
2023-01-21T08:22:47.840Z,-0.2
2023-01-21T08:23:48.960Z,-0.2
2023-01-21T08:24:50.164Z,-0.2
2023-01-21T08:25:51.297Z,-0.1
2023-01-21T08:26:52.710Z,-0.1
2023-01-21T08:27:53.961Z,-0.1
2023-01-21T08:28:54.797Z,-0.1
2023-01-21T08:29:56.194Z,-0.1
2023-01-21T08:30:57.402Z,-0.1
2023-01-21T08:31:58.523Z,-0.1
2023-01-21T08:32:59.835Z,-0.1
2023-01-21T08:34:01.217Z,0
2023-01-21T08:35:02.628Z,0
2023-01-21T08:36:03.796Z,0
2023-01-21T08:37:04.666Z,0
2023-01-21T08:38:05.532Z,0
2023-01-21T08:39:06.162Z,0
2023-01-21T08:40:07.084Z,0.1
2023-01-21T08:41:07.701Z,0.1
2023-01-21T08:42:08.837Z,0.1
2023-01-21T08:43:10.277Z,0.1
2023-01-21T08:44:11.435Z,0.1
2023-01-21T08:45:15.129Z,0.1
2023-01-21T08:46:16.946Z,0.1
2023-01-21T08:47:18.359Z,0.2
2023-01-21T08:48:19.579Z,0.2
2023-01-21T08:49:20.688Z,0.2
2023-01-21T08:50:22.568Z,0.2
2023-01-21T08:51:24.012Z,0.2
2023-01-21T08:52:25.569Z,0.2
2023-01-21T08:53:26.192Z,0.2
2023-01-21T08:54:27.334Z,0.2
2023-01-21T08:55:28.465Z,0.3
2023-01-21T08:56:29.377Z,0.3
2023-01-21T08:57:30.236Z,0.3
2023-01-21T08:58:31.385Z,0.3
2023-01-21T08:59:32.267Z,0.3
2023-01-21T09:00:33.451Z,0.3
2023-01-21T09:01:34.878Z,0.4
2023-01-21T09:02:36.000Z,0.4
2023-01-21T09:03:36.665Z,0.4
2023-01-21T09:04:37.292Z,0.4
2023-01-21T09:05:37.915Z,0.4
2023-01-21T09:06:39.060Z,0.4
2023-01-21T09:07:40.210Z,0.4
2023-01-21T09:08:41.067Z,0.5
2023-01-21T09:09:42.189Z,0.5
2023-01-21T09:10:43.325Z,0.5
2023-01-21T09:11:44.665Z,0.5
2023-01-21T09:12:46.081Z,0.5
2023-01-21T09:13:47.509Z,0.5
2023-01-21T09:14:48.646Z,0.5
2023-01-21T09:15:49.536Z,0.5
2023-01-21T09:16:50.968Z,0.5
2023-01-21T09:17:52.416Z,0.5
2023-01-21T09:18:53.329Z,0.5
2023-01-21T09:19:55.515Z,0.6
2023-01-21T09:20:56.453Z,0.6
2023-01-21T09:21:57.587Z,0.6
2023-01-21T09:22:58.428Z,0.6
2023-01-21T09:23:59.657Z,0.6
2023-01-21T09:25:00.525Z,0.6
2023-01-21T09:26:01.138Z,0.6
2023-01-21T09:27:02.004Z,0.6
2023-01-21T09:28:02.617Z,0.6
2023-01-21T09:29:03.571Z,0.6
2023-01-21T09:30:04.179Z,0.7
2023-01-21T09:31:05.088Z,0.7
2023-01-21T09:32:05.959Z,0.7
2023-01-21T09:33:06.815Z,0.7
2023-01-21T09:34:08.048Z,0.7
2023-01-21T09:35:09.206Z,0.7
2023-01-21T09:36:10.127Z,0.7
2023-01-21T09:37:10.996Z,0.7
2023-01-21T09:38:11.844Z,0.7
2023-01-21T09:39:13.531Z,0.7
2023-01-21T09:40:14.910Z,0.7
2023-01-21T09:41:16.068Z,0.7
2023-01-21T09:42:17.261Z,0.7
2023-01-21T09:43:18.699Z,0.7
2023-01-21T09:44:19.831Z,0.7
2023-01-21T09:45:20.951Z,0.7
2023-01-21T09:46:21.858Z,0.7
2023-01-21T09:47:23.000Z,0.7
2023-01-21T09:48:23.612Z,0.7
2023-01-21T09:49:24.553Z,0.7
2023-01-21T09:50:25.756Z,0.7
2023-01-21T09:51:26.383Z,0.7
2023-01-21T09:52:27.324Z,0.7
2023-01-21T09:53:28.446Z,0.7
2023-01-21T09:54:29.596Z,0.8
2023-01-21T09:55:30.463Z,0.8
2023-01-21T09:56:31.886Z,0.8
2023-01-21T09:57:33.025Z,0.8
2023-01-21T09:58:34.155Z,0.8
2023-01-21T09:59:35.075Z,0.8
2023-01-21T10:00:35.687Z,0.9
2023-01-21T10:01:36.543Z,0.8
2023-01-21T10:02:37.195Z,0.9
2023-01-21T10:03:38.324Z,0.9
2023-01-21T10:04:39.533Z,0.9
2023-01-21T10:05:41.173Z,0.9
2023-01-21T10:06:42.291Z,0.9
2023-01-21T10:07:43.830Z,0.9
2023-01-21T10:08:45.236Z,0.9
2023-01-21T10:09:46.380Z,0.9
2023-01-21T10:10:46.999Z,0.9
2023-01-21T10:11:47.899Z,0.9
2023-01-21T10:12:48.761Z,0.9
2023-01-21T10:13:49.389Z,1
2023-01-21T10:14:50.031Z,1
2023-01-21T10:15:51.155Z,1
2023-01-21T10:16:52.653Z,1
2023-01-21T10:17:53.603Z,1
2023-01-21T10:18:54.746Z,1
2023-01-21T10:19:55.690Z,1
2023-01-21T10:20:56.856Z,1
2023-01-21T10:21:57.997Z,1
2023-01-21T10:22:58.693Z,1
2023-01-21T10:23:59.531Z,1
2023-01-21T10:25:00.744Z,1
2023-01-21T10:26:01.571Z,1
2023-01-21T10:27:02.759Z,1
2023-01-21T10:28:03.676Z,1
2023-01-21T10:29:04.582Z,1
2023-01-21T10:30:07.545Z,1
2023-01-21T10:31:08.795Z,1
2023-01-21T10:32:10.116Z,1
2023-01-21T10:33:11.254Z,1
2023-01-21T10:34:12.387Z,1
2023-01-21T10:35:13.650Z,1
2023-01-21T10:36:15.462Z,1
2023-01-21T10:37:16.379Z,1
2023-01-21T10:38:17.046Z,1
2023-01-21T10:39:17.955Z,1
2023-01-21T10:40:18.870Z,1
2023-01-21T10:41:19.471Z,1
2023-01-21T10:42:20.332Z,1
2023-01-21T10:43:21.465Z,1.1
2023-01-21T10:44:23.009Z,1.1
2023-01-21T10:45:24.159Z,1.1
2023-01-21T10:46:25.402Z,1.1
2023-01-21T10:47:26.554Z,1.1
2023-01-21T10:48:28.961Z,1.1
2023-01-21T10:49:30.205Z,1.1
2023-01-21T10:50:31.147Z,1.1
2023-01-21T10:51:32.399Z,1.1
2023-01-21T10:52:33.692Z,1.1
2023-01-21T10:53:34.316Z,1.1
2023-01-21T10:54:35.225Z,1.1
2023-01-21T10:55:36.640Z,1.1
2023-01-21T10:56:37.237Z,1.1
2023-01-21T10:57:38.377Z,1.2
2023-01-21T10:58:39.508Z,1.2
2023-01-21T10:59:40.695Z,1.2
2023-01-21T11:00:41.624Z,1.2
2023-01-21T11:01:42.772Z,1.2
2023-01-21T11:02:43.876Z,1.2
2023-01-21T11:03:44.809Z,1.2
2023-01-21T11:04:45.973Z,1.2
2023-01-21T11:05:49.124Z,1.2
2023-01-21T11:06:51.089Z,1.2
2023-01-21T11:07:52.268Z,1.2
2023-01-21T11:08:53.192Z,1.2
2023-01-21T11:09:54.511Z,1.2
2023-01-21T11:10:55.734Z,1.2
2023-01-21T11:11:56.902Z,1.2
2023-01-21T11:12:57.522Z,1.3
2023-01-21T11:13:58.441Z,1.3
2023-01-21T11:14:59.370Z,1.2
2023-01-21T11:16:00.635Z,1.3
2023-01-21T11:17:02.043Z,1.3
2023-01-21T11:18:03.161Z,1.3
2023-01-21T11:19:04.027Z,1.3
2023-01-21T11:20:04.918Z,1.3
2023-01-21T11:21:06.386Z,1.3
2023-01-21T11:22:07.321Z,1.3
2023-01-21T11:23:08.460Z,1.3
2023-01-21T11:24:09.593Z,1.3
2023-01-21T11:25:10.776Z,1.3
2023-01-21T11:26:11.679Z,1.3
2023-01-21T11:27:12.812Z,1.4
2023-01-21T11:28:13.703Z,1.4
2023-01-21T11:29:14.567Z,1.4
2023-01-21T11:30:34.145Z,1.4
2023-01-21T11:31:52.599Z,1.4
2023-01-21T11:32:54.130Z,1.4
2023-01-21T11:33:55.237Z,1.4
2023-01-21T11:34:55.857Z,1.4
2023-01-21T11:35:56.519Z,1.4
2023-01-21T11:36:57.649Z,1.4
2023-01-21T11:37:58.952Z,1.4
2023-01-21T11:38:59.569Z,1.4
2023-01-21T11:40:00.527Z,1.4
2023-01-21T11:41:01.656Z,1.4
2023-01-21T11:42:02.818Z,1.4
2023-01-21T11:43:03.923Z,1.3
2023-01-21T11:44:04.833Z,1.4
2023-01-21T11:45:05.472Z,1.3
2023-01-21T11:46:06.190Z,1.3
2023-01-21T11:47:07.278Z,1.3
2023-01-21T11:48:08.165Z,1.3
2023-01-21T11:49:09.301Z,1.3
2023-01-21T11:50:10.193Z,1.3
2023-01-21T11:51:11.196Z,1.3
2023-01-21T11:52:12.764Z,1.4
2023-01-21T11:53:13.654Z,1.4
2023-01-21T11:54:14.792Z,1.4
2023-01-21T11:55:15.929Z,1.4
2023-01-21T11:56:17.342Z,1.4
2023-01-21T11:57:18.225Z,1.5
2023-01-21T11:58:19.351Z,1.5
2023-01-21T11:59:20.550Z,1.5
2023-01-21T12:00:21.676Z,1.5
2023-01-21T12:01:23.071Z,1.6
2023-01-21T12:02:24.233Z,1.6
2023-01-21T12:03:25.119Z,1.6
2023-01-21T12:04:26.033Z,1.7
2023-01-21T12:05:26.683Z,1.7
2023-01-21T12:06:27.836Z,1.7
2023-01-21T12:07:28.780Z,1.8
2023-01-21T12:08:30.154Z,1.8
2023-01-21T12:09:31.008Z,1.8
2023-01-21T12:10:31.634Z,1.9
2023-01-21T12:11:32.491Z,1.9
2023-01-21T12:12:33.921Z,1.9
2023-01-21T12:13:35.323Z,1.9
2023-01-21T12:14:36.458Z,2
2023-01-21T12:15:37.382Z,2
2023-01-21T12:16:38.807Z,2
2023-01-21T12:17:40.195Z,2.1
2023-01-21T12:18:41.387Z,2.2
2023-01-21T12:19:42.518Z,2.2
2023-01-21T12:20:43.935Z,2.3
2023-01-21T12:21:44.812Z,2.4
2023-01-21T12:22:45.468Z,2.4
2023-01-21T12:23:46.100Z,2.5
2023-01-21T12:24:47.317Z,2.5
2023-01-21T12:25:48.709Z,2.5
2023-01-21T12:26:49.898Z,2.6
2023-01-21T12:27:51.046Z,2.6
2023-01-21T12:28:52.376Z,2.6
2023-01-21T12:29:53.270Z,2.7
2023-01-21T12:30:54.246Z,2.7
2023-01-21T12:31:55.852Z,2.7
2023-01-21T12:32:57.215Z,2.7
2023-01-21T12:33:58.063Z,2.7
2023-01-21T12:34:59.203Z,2.7
2023-01-21T12:36:00.104Z,2.7
2023-01-21T12:37:01.242Z,2.7
2023-01-21T12:38:02.194Z,2.7
2023-01-21T12:39:02.819Z,2.6
2023-01-21T12:40:03.962Z,2.6
2023-01-21T12:41:05.385Z,2.6
2023-01-21T12:42:06.522Z,2.6
2023-01-21T12:43:07.423Z,2.6
2023-01-21T12:44:08.027Z,2.6
2023-01-21T12:45:08.884Z,2.7
2023-01-21T12:46:10.100Z,2.7
2023-01-21T12:47:11.926Z,2.7
2023-01-21T12:48:12.799Z,2.7
2023-01-21T12:49:13.674Z,2.7
2023-01-21T12:50:15.092Z,2.7
2023-01-21T12:51:16.288Z,2.7
2023-01-21T12:52:17.752Z,2.7
2023-01-21T12:53:18.925Z,2.7
2023-01-21T12:54:19.811Z,2.7
2023-01-21T12:55:21.235Z,2.7
2023-01-21T12:56:22.638Z,2.8
2023-01-21T12:57:23.784Z,2.7
2023-01-21T12:58:24.688Z,2.7
2023-01-21T12:59:25.533Z,2.7
2023-01-21T13:00:26.742Z,2.7
2023-01-21T13:01:27.608Z,2.7
2023-01-21T13:02:28.898Z,2.8
2023-01-21T13:03:30.319Z,2.8
2023-01-21T13:04:31.438Z,2.8
2023-01-21T13:05:32.295Z,2.8
2023-01-21T13:06:52.194Z,2.9
2023-01-21T13:07:55.185Z,2.9
2023-01-21T13:08:56.378Z,2.9
2023-01-21T13:09:57.776Z,2.9
2023-01-21T13:10:59.174Z,2.9
2023-01-21T13:12:00.093Z,3
2023-01-21T13:13:01.274Z,3
2023-01-21T13:14:02.238Z,3
2023-01-21T13:15:03.108Z,3
2023-01-21T13:16:04.267Z,3
2023-01-21T13:17:04.915Z,2.9
2023-01-21T13:18:06.340Z,2.9
2023-01-21T13:19:07.535Z,2.9
2023-01-21T13:20:08.508Z,2.9
2023-01-21T13:21:09.569Z,2.9
2023-01-21T13:22:10.755Z,2.9
2023-01-21T13:23:12.168Z,2.9
2023-01-21T13:24:13.120Z,2.8
2023-01-21T13:25:14.335Z,2.8
2023-01-21T13:26:15.229Z,2.8
2023-01-21T13:27:16.649Z,2.8
2023-01-21T13:28:17.582Z,2.8
2023-01-21T13:29:18.698Z,2.8
2023-01-21T13:30:19.930Z,2.8
2023-01-21T13:31:21.581Z,2.7
2023-01-21T13:32:23.162Z,2.7
2023-01-21T13:33:24.293Z,2.7
2023-01-21T13:34:25.919Z,2.7
2023-01-21T13:35:26.495Z,2.7
2023-01-21T13:36:27.648Z,2.7
2023-01-21T13:37:28.774Z,2.6
2023-01-21T13:38:30.194Z,2.6
2023-01-21T13:39:31.630Z,2.6
2023-01-21T13:40:32.532Z,2.6
2023-01-21T13:41:33.436Z,2.5
2023-01-21T13:42:34.854Z,2.5
2023-01-21T13:43:35.717Z,2.5
2023-01-21T13:44:36.861Z,2.5
2023-01-21T13:45:37.748Z,2.5
2023-01-21T13:46:39.463Z,2.4
2023-01-21T13:47:40.779Z,2.4
2023-01-21T13:48:41.660Z,2.4
2023-01-21T13:49:42.573Z,2.4
2023-01-21T13:50:43.415Z,2.4